Time;durP1;ratioP1;P1;durP2;ratioP2;P2;SDS_P1;SDS_P2;PMS_P1;PMS_P2;Temp;Humidity;BMP_temperature;BMP_pressure;BME280_temperature;BME280_humidity;BME280_pressure;Samples;Min_cycle;Max_cycle;Signal;HPM_P1;HPM_P2
2022/10/16 00:00:34;;;;;;;6.88;1.38;;;11.80;99.90;;;;;;5017743;28;20553;-80
2022/10/16 00:03:00;;;;;;;4.97;1.02;;;11.70;99.90;;;;;;5017567;28;20022;-80
2022/10/16 00:05:25;;;;;;;2.95;0.85;;;11.70;99.90;;;;;;4999865;28;20029;-80
2022/10/16 00:07:51;;;;;;;5.40;1.45;;;11.60;99.90;;;;;;5017856;28;20022;-80
2022/10/16 00:10:16;;;;;;;4.82;1.30;;;11.70;99.90;;;;;;5017433;28;20018;-80
2022/10/16 00:12:42;;;;;;;7.63;1.58;;;11.70;99.90;;;;;;5017497;28;20049;-80
2022/10/16 00:15:08;;;;;;;5.80;1.20;;;11.70;99.90;;;;;;5017420;28;20105;-80
2022/10/16 00:17:34;;;;;;;7.47;1.50;;;11.80;99.90;;;;;;5017495;28;20349;-80
2022/10/16 00:19:59;;;;;;;7.75;1.30;;;12.00;99.90;;;;;;5017151;28;20026;-80
2022/10/16 00:22:25;;;;;;;3.28;1.13;;;12.00;99.90;;;;;;5017463;28;20030;-80
2022/10/16 00:24:51;;;;;;;6.05;1.23;;;11.90;99.90;;;;;;5017172;28;20057;-80
2022/10/16 00:27:17;;;;;;;7.85;1.10;;;11.90;99.90;;;;;;5017162;28;20545;-80
2022/10/16 00:29:43;;;;;;;6.53;1.70;;;11.80;99.90;;;;;;5017534;28;20034;-80
2022/10/16 00:32:08;;;;;;;4.60;1.25;;;11.80;99.90;;;;;;5019794;28;20017;-80
2022/10/16 00:34:35;;;;;;;5.93;1.02;;;11.70;99.90;;;;;;5023023;28;20128;-80
2022/10/16 00:37:00;;;;;;;4.30;1.23;;;11.70;99.90;;;;;;5024560;28;20026;-80
2022/10/16 00:40:07;;;;;;;5.70;1.00;;;11.80;99.90;;;;;;5017111;28;20370;-80
2022/10/16 00:42:32;;;;;;;3.25;0.88;;;11.80;99.90;;;;;;5035930;28;20033;-80
2022/10/16 00:44:58;;;;;;;4.13;1.10;;;11.80;99.90;;;;;;5036761;28;20063;-79
2022/10/16 00:47:40;;;;;;;2.42;1.00;;;11.80;99.90;;;;;;5036449;28;20022;-79
2022/10/16 00:50:11;;;;;;;5.50;0.98;;;11.90;99.90;;;;;;5018508;28;20029;-80
2022/10/16 00:52:42;;;;;;;3.72;0.82;;;12.00;99.90;;;;;;5036564;28;20025;-80
2022/10/16 00:55:09;;;;;;;4.03;1.00;;;12.30;99.90;;;;;;5036430;28;20026;-80
2022/10/16 00:57:34;;;;;;;4.85;1.50;;;12.30;99.90;;;;;;5030575;28;20034;-80
2022/10/16 01:00:01;;;;;;;2.25;0.80;;;12.40;99.90;;;;;;5016506;28;20021;-80
2022/10/16 01:06:21;;;;;;;3.70;1.10;;;12.40;99.90;;;;;;4995883;28;20497;-80
2022/10/16 01:08:58;;;;;;;1.95;0.90;;;12.40;99.90;;;;;;5011992;28;20111;-80
2022/10/16 01:12:05;;;;;;;4.28;1.33;;;12.50;99.90;;;;;;5016335;28;20030;-80
2022/10/16 01:14:47;;;;;;;3.47;0.98;;;12.60;99.90;;;;;;5015868;28;20073;-80
2022/10/16 01:17:21;;;;;;;3.55;1.40;;;12.60;99.90;;;;;;5016214;28;20036;-80
2022/10/16 01:20:11;;;;;;;4.75;1.35;;;12.60;99.90;;;;;;5016205;28;20120;-80
2022/10/16 01:22:49;;;;;;;;;;;12.60;99.90;;;;;;5017082;28;20173;-80
2022/10/16 01:25:53;;;;;;;6.10;1.20;;;12.50;99.90;;;;;;5015951;28;20335;-80
2022/10/16 01:28:21;;;;;;;2.63;1.27;;;12.60;99.90;;;;;;5015991;28;20030;-80
2022/10/16 01:30:49;;;;;;;3.88;1.08;;;12.70;99.90;;;;;;5015991;28;20455;-80
2022/10/16 01:33:22;;;;;;;2.80;1.25;;;12.60;99.90;;;;;;5002966;28;20510;-80
2022/10/16 01:35:54;;;;;;;4.90;0.90;;;12.70;99.90;;;;;;4996207;28;20050;-80
2022/10/16 01:38:31;;;;;;;3.67;1.15;;;12.70;99.90;;;;;;4996243;28;20110;-80
2022/10/16 01:41:06;;;;;;;3.50;0.90;;;12.70;99.90;;;;;;4996436;28;20033;-80
2022/10/16 01:43:37;;;;;;;4.05;1.00;;;12.60;99.90;;;;;;4996571;28;20023;-80
2022/10/16 01:46:03;;;;;;;4.10;0.95;;;12.60;99.90;;;;;;4996430;28;20041;-80
2022/10/16 01:48:31;;;;;;;6.05;1.10;;;12.60;99.90;;;;;;4996059;28;20025;-80
2022/10/16 01:51:08;;;;;;;2.65;1.52;;;12.60;99.90;;;;;;4996303;28;20030;-81
2022/10/16 01:53:35;;;;;;;4.57;1.48;;;12.60;99.90;;;;;;4996125;28;20065;-80
2022/10/16 01:56:04;;;;;;;2.90;1.30;;;12.60;99.90;;;;;;4995847;28;20027;-80
2022/10/16 01:58:35;;;;;;;2.23;1.13;;;12.50;99.90;;;;;;4996321;28;20456;-80
2022/10/16 02:01:03;;;;;;;3.13;1.40;;;12.50;99.90;;;;;;4995903;28;20018;-80
2022/10/16 02:03:29;;;;;;;2.90;1.52;;;12.50;99.90;;;;;;4995675;28;20057;-80
2022/10/16 02:05:57;;;;;;;3.45;1.80;;;12.50;99.90;;;;;;4995603;28;20493;-80
2022/10/16 02:08:27;;;;;;;2.33;1.50;;;12.50;99.90;;;;;;4995748;28;20117;-80
2022/10/16 02:10:55;;;;;;;5.53;1.77;;;12.50;99.90;;;;;;4996179;28;20026;-80
2022/10/16 02:13:58;;;;;;;4.97;1.70;;;12.50;99.90;;;;;;4996020;28;20030;-80
2022/10/16 02:16:40;;;;;;;4.30;2.00;;;12.50;99.90;;;;;;4983011;28;20037;-80
2022/10/16 02:19:07;;;;;;;5.05;1.92;;;12.40;99.90;;;;;;4995531;28;20023;-80
2022/10/16 02:21:38;;;;;;;6.00;1.98;;;12.40;99.90;;;;;;4995407;28;20023;-80
2022/10/16 02:24:33;;;;;;;3.38;1.98;;;12.30;99.90;;;;;;4995222;28;20022;-80
2022/10/16 02:27:13;;;;;;;2.92;1.77;;;12.20;99.90;;;;;;4995594;28;20046;-80
2022/10/16 02:29:49;;;;;;;5.03;1.90;;;12.10;99.90;;;;;;4995544;28;20769;-80
2022/10/16 02:32:18;;;;;;;4.85;2.00;;;12.10;99.90;;;;;;4995403;28;20073;-80
2022/10/16 02:34:46;;;;;;;2.37;1.77;;;11.90;99.90;;;;;;4994891;28;20123;-81
2022/10/16 02:37:13;;;;;;;5.70;2.28;;;11.80;99.90;;;;;;4995174;28;20018;-80
2022/10/16 02:39:40;;;;;;;4.40;2.22;;;11.80;99.90;;;;;;4995205;28;20088;-80
2022/10/16 02:42:11;;;;;;;5.15;2.30;;;11.80;99.90;;;;;;4995057;28;20025;-80
2022/10/16 02:44:37;;;;;;;5.38;2.50;;;11.80;99.90;;;;;;4994940;28;20450;-80
2022/10/16 02:47:02;;;;;;;3.78;1.90;;;11.70;99.90;;;;;;4995088;28;20085;-80
2022/10/16 02:49:28;;;;;;;5.53;2.28;;;11.60;99.90;;;;;;4994865;28;20032;-80
2022/10/16 02:51:53;;;;;;;4.40;2.05;;;11.50;99.90;;;;;;4994843;28;20022;-80
2022/10/16 02:54:19;;;;;;;4.03;2.00;;;11.30;99.90;;;;;;4994777;28;20470;-80
2022/10/16 02:56:44;;;;;;;3.63;2.10;;;11.20;99.90;;;;;;4994946;28;20521;-80
2022/10/16 02:59:10;;;;;;;3.72;1.80;;;11.20;99.90;;;;;;4994680;28;20076;-80
2022/10/16 03:01:35;;;;;;;5.10;2.28;;;11.20;99.90;;;;;;4994829;28;20100;-80
2022/10/16 03:04:01;;;;;;;3.97;1.92;;;11.40;99.90;;;;;;4995073;28;20034;-80
2022/10/16 03:06:27;;;;;;;5.43;1.60;;;11.20;99.90;;;;;;4994725;28;20022;-80
2022/10/16 03:08:52;;;;;;;4.07;1.67;;;11.10;99.90;;;;;;4994491;28;20022;-80
2022/10/16 03:11:18;;;;;;;5.78;2.10;;;11.10;99.90;;;;;;5010648;28;20427;-80
2022/10/16 03:13:43;;;;;;;5.50;2.25;;;11.00;99.90;;;;;;5004969;28;20038;-80
2022/10/16 03:16:09;;;;;;;5.90;1.80;;;11.00;99.90;;;;;;4994500;28;20022;-80
2022/10/16 03:18:34;;;;;;;3.17;1.67;;;11.00;99.90;;;;;;4994579;28;20026;-80
2022/10/16 03:21:00;;;;;;;3.50;1.92;;;11.10;99.90;;;;;;4994474;28;20339;-80
2022/10/16 03:23:26;;;;;;;3.50;1.80;;;11.20;99.90;;;;;;4994498;28;20496;-80
2022/10/16 03:25:52;;;;;;;6.30;2.00;;;11.30;99.90;;;;;;4994168;28;20022;-80
2022/10/16 03:28:17;;;;;;;3.10;1.50;;;11.30;99.90;;;;;;4993699;28;20023;-80
2022/10/16 03:30:43;;;;;;;4.88;1.70;;;11.30;99.90;;;;;;5026061;28;20032;-80
2022/10/16 03:33:09;;;;;;;3.95;1.98;;;11.40;99.90;;;;;;5033857;28;20017;-81
2022/10/16 03:35:35;;;;;;;2.28;1.77;;;11.40;99.90;;;;;;5033137;28;20045;-80
2022/10/16 03:38:00;;;;;;;5.05;1.77;;;11.50;99.90;;;;;;5033466;28;20022;-80
2022/10/16 03:40:27;;;;;;;4.93;1.65;;;11.60;99.90;;;;;;5033733;28;20029;-80
2022/10/16 03:42:55;;;;;;;5.47;1.50;;;11.80;99.90;;;;;;5033429;28;20100;-80
2022/10/16 03:45:20;;;;;;;2.67;1.50;;;11.80;99.90;;;;;;5033753;28;20021;-80
2022/10/16 03:47:47;;;;;;;5.43;1.80;;;11.80;99.90;;;;;;5033442;28;20017;-81
2022/10/16 03:50:12;;;;;;;3.17;1.25;;;11.90;99.90;;;;;;5033847;28;20025;-80
2022/10/16 03:52:38;;;;;;;5.57;1.60;;;12.00;99.90;;;;;;5033510;28;20018;-81
2022/10/16 03:55:04;;;;;;;2.67;1.60;;;12.00;99.90;;;;;;5033247;28;20476;-80
2022/10/16 03:57:29;;;;;;;3.63;1.20;;;12.00;99.90;;;;;;5023401;28;20053;-81
2022/10/16 03:59:55;;;;;;;4.95;1.50;;;12.10;99.90;;;;;;5013590;28;20069;-81
2022/10/16 04:02:20;;;;;;;5.22;1.50;;;12.10;99.90;;;;;;5013491;28;20026;-81
2022/10/16 04:04:46;;;;;;;2.80;1.40;;;12.10;99.90;;;;;;5016482;28;20022;-81
2022/10/16 04:07:12;;;;;;;5.57;1.42;;;12.10;99.90;;;;;;5033503;28;20033;-81
2022/10/16 04:09:37;;;;;;;3.00;1.17;;;12.10;99.90;;;;;;5030701;28;20022;-80
2022/10/16 04:12:03;;;;;;;4.85;1.60;;;12.10;99.90;;;;;;5013737;28;20105;-81
2022/10/16 04:14:28;;;;;;;6.45;1.90;;;12.10;99.90;;;;;;5013188;28;20425;-81
2022/10/16 04:16:54;;;;;;;6.15;2.40;;;12.10;99.90;;;;;;5013710;28;20026;-81
2022/10/16 04:19:19;;;;;;;3.92;2.00;;;12.20;99.90;;;;;;5013738;28;20529;-80
2022/10/16 04:21:45;;;;;;;4.43;1.63;;;12.20;99.90;;;;;;5013280;28;20430;-81
2022/10/16 04:25:01;;;;;;;4.30;1.40;;;12.20;99.90;;;;;;5013306;28;20406;-81
2022/10/16 04:27:28;;;;;;;7.68;1.40;;;12.20;99.90;;;;;;5013576;28;20109;-81
2022/10/16 04:29:53;;;;;;;3.30;1.52;;;12.20;99.90;;;;;;4996267;28;20035;-81
2022/10/16 04:32:19;;;;;;;4.70;1.40;;;12.20;99.90;;;;;;4993608;28;20030;-81
2022/10/16 04:34:44;;;;;;;5.10;1.52;;;12.30;99.90;;;;;;4993159;28;20062;-81
2022/10/16 04:37:10;;;;;;;3.38;1.33;;;12.10;99.90;;;;;;4993787;28;20030;-81
2022/10/16 04:39:36;;;;;;;6.25;1.50;;;12.10;99.90;;;;;;4994501;28;20034;-81
2022/10/16 04:42:02;;;;;;;5.28;1.30;;;12.10;99.90;;;;;;4997157;28;20109;-81
2022/10/16 04:44:28;;;;;;;3.17;1.13;;;12.10;99.90;;;;;;4997773;28;20474;-81
2022/10/16 04:46:53;;;;;;;5.13;1.25;;;12.10;99.90;;;;;;4979574;28;20081;-81
2022/10/16 04:49:19;;;;;;;1.95;0.80;;;12.00;99.90;;;;;;4988670;28;20030;-81
2022/10/16 04:51:44;;;;;;;2.13;0.98;;;12.00;99.90;;;;;;5016701;28;20063;-81
2022/10/16 04:54:10;;;;;;;4.22;0.90;;;12.10;99.90;;;;;;5016528;28;20083;-81
2022/10/16 04:56:42;;;;;;;2.55;1.10;;;12.10;99.90;;;;;;5016821;28;20103;-81
2022/10/16 04:59:09;;;;;;;3.70;1.00;;;12.10;99.90;;;;;;4999544;28;20044;-80
2022/10/16 05:01:34;;;;;;;2.53;1.00;;;12.10;99.90;;;;;;5016420;28;20022;-80
2022/10/16 05:04:00;;;;;;;3.40;1.30;;;12.00;99.90;;;;;;5016320;28;20076;-81
2022/10/16 05:06:26;;;;;;;4.57;1.27;;;12.00;99.90;;;;;;5016391;28;20026;-80
2022/10/16 05:08:51;;;;;;;3.28;1.50;;;12.00;99.90;;;;;;5016467;28;20025;-80
2022/10/16 05:11:17;;;;;;;5.38;1.63;;;12.00;99.90;;;;;;5015100;28;20029;-80
2022/10/16 05:13:42;;;;;;;2.28;1.85;;;12.00;99.90;;;;;;4979150;28;20038;-81
2022/10/16 05:16:08;;;;;;;3.42;1.60;;;11.90;99.90;;;;;;4997135;28;20026;-81
2022/10/16 05:18:33;;;;;;;4.00;1.60;;;11.80;99.90;;;;;;5006204;28;20037;-80
2022/10/16 05:27:28;;;;;;;3.60;2.70;;;11.50;99.90;;;;;;5029544;28;20040;-81
2022/10/16 05:29:54;;;;;;;4.95;2.00;;;11.40;99.90;;;;;;5035780;28;20029;-81
2022/10/16 05:32:19;;;;;;;7.60;2.80;;;11.40;99.90;;;;;;5011194;28;20029;-81
2022/10/16 05:34:45;;;;;;;4.72;2.25;;;11.30;99.90;;;;;;4995864;28;20544;-81
2022/10/16 05:37:11;;;;;;;4.45;1.98;;;11.30;99.90;;;;;;4996404;28;20026;-81
2022/10/16 05:39:38;;;;;;;4.22;2.40;;;11.40;99.90;;;;;;4996205;28;20049;-80
2022/10/16 05:42:05;;;;;;;3.35;2.28;;;11.40;99.90;;;;;;4996234;28;20027;-81
2022/10/16 05:44:31;;;;;;;3.70;1.98;;;11.60;99.90;;;;;;4996038;28;20033;-81
2022/10/16 05:46:56;;;;;;;5.80;2.50;;;11.70;99.90;;;;;;4996315;28;20030;-81
2022/10/16 05:49:22;;;;;;;6.47;2.05;;;11.70;99.90;;;;;;4996009;28;20069;-81
2022/10/16 05:51:48;;;;;;;5.45;1.80;;;11.70;99.90;;;;;;4995073;28;20394;-81
2022/10/16 05:54:13;;;;;;;6.20;1.90;;;11.60;99.90;;;;;;5009930;28;20041;-80
2022/10/16 05:56:39;;;;;;;5.18;2.15;;;11.60;99.90;;;;;;5015481;28;20468;-81
2022/10/16 05:59:04;;;;;;;4.15;2.10;;;11.60;99.90;;;;;;4998920;28;20034;-80
2022/10/16 06:01:30;;;;;;;4.70;2.13;;;11.70;99.90;;;;;;4995887;28;20033;-80
2022/10/16 06:03:56;;;;;;;4.93;2.55;;;11.70;99.90;;;;;;4995748;28;20102;-80
2022/10/16 06:06:25;;;;;;;5.50;2.13;;;11.70;99.90;;;;;;4995748;28;20101;-80
2022/10/16 06:08:52;;;;;;;3.25;2.00;;;11.60;99.90;;;;;;4999454;28;20026;-80
2022/10/16 06:11:20;;;;;;;7.22;2.15;;;11.60;99.90;;;;;;5010094;28;20025;-81
2022/10/16 06:13:53;;;;;;;5.00;1.90;;;11.50;99.90;;;;;;5025420;28;20042;-81
2022/10/16 06:16:19;;;;;;;6.65;2.42;;;11.50;99.90;;;;;;4987297;28;20130;-82
2022/10/16 06:18:45;;;;;;;9.70;2.35;;;11.60;99.90;;;;;;5001116;28;20120;-81
2022/10/16 06:21:24;;;;;;;7.38;2.22;;;11.50;99.90;;;;;;5003698;28;20026;-82
2022/10/16 06:23:50;;;;;;;9.70;2.38;;;11.60;99.90;;;;;;5007215;28;20025;-82
2022/10/16 06:26:19;;;;;;;2.72;1.70;;;11.70;99.90;;;;;;5013093;28;20018;-82
2022/10/16 06:28:45;;;;;;;4.88;1.70;;;11.90;99.90;;;;;;5007426;28;20037;-82
2022/10/16 06:31:11;;;;;;;6.03;1.65;;;11.90;99.90;;;;;;5010278;28;20425;-82
2022/10/16 06:33:38;;;;;;;4.25;1.55;;;12.00;99.90;;;;;;5005889;28;20406;-82
2022/10/16 06:36:12;;;;;;;5.53;1.58;;;11.90;99.90;;;;;;5015486;28;20378;-82
2022/10/16 06:38:38;;;;;;;6.60;2.63;;;11.80;99.90;;;;;;5007612;28;20088;-82
2022/10/16 06:41:05;;;;;;;6.95;1.73;;;11.80;99.90;;;;;;5015734;28;20032;-82
2022/10/16 06:43:32;;;;;;;4.90;1.75;;;11.80;99.90;;;;;;5011006;28;20038;-81
2022/10/16 06:45:59;;;;;;;3.88;1.63;;;11.80;99.90;;;;;;5007348;28;20398;-81
2022/10/16 06:48:25;;;;;;;8.43;1.58;;;11.70;99.90;;;;;;5012982;28;20410;-81
2022/10/16 06:51:01;;;;;;;7.93;1.65;;;11.90;99.90;;;;;;5009300;28;20112;-81
2022/10/16 06:53:29;;;;;;;5.38;1.70;;;11.90;99.90;;;;;;5013098;28;20060;-81
2022/10/16 06:55:55;;;;;;;5.35;1.77;;;11.90;99.90;;;;;;5009301;28;20416;-81
2022/10/16 06:58:21;;;;;;;7.85;2.20;;;11.80;99.90;;;;;;5007603;28;20022;-81
2022/10/16 07:00:47;;;;;;;7.47;1.90;;;11.80;99.90;;;;;;5008636;28;20079;-81
2022/10/16 07:03:13;;;;;;;5.45;2.00;;;11.90;99.90;;;;;;5001282;28;20022;-81
2022/10/16 07:05:39;;;;;;;5.20;1.90;;;11.80;99.90;;;;;;5001484;28;20501;-81
2022/10/16 07:08:05;;;;;;;3.25;1.83;;;11.80;99.90;;;;;;4998654;28;20508;-81
2022/10/16 07:10:32;;;;;;;6.40;1.90;;;11.80;99.90;;;;;;5002594;28;20022;-81
2022/10/16 07:12:57;;;;;;;6.00;1.80;;;11.80;99.90;;;;;;5001894;28;20113;-81
2022/10/16 07:15:24;;;;;;;3.10;2.03;;;11.90;99.90;;;;;;5004172;28;20121;-81
2022/10/16 07:17:50;;;;;;;3.80;1.80;;;12.70;99.90;;;;;;5002119;28;20025;-81
2022/10/16 07:20:15;;;;;;;3.80;1.92;;;13.20;99.90;;;;;;5005784;28;20018;-81
2022/10/16 07:22:41;;;;;;;4.45;1.85;;;13.20;99.90;;;;;;5010638;28;20423;-81
2022/10/16 07:25:07;;;;;;;5.55;2.60;;;13.60;99.90;;;;;;5005259;28;20027;-81
2022/10/16 07:27:32;;;;;;;8.32;2.00;;;13.30;99.90;;;;;;5003102;28;20010;-81
2022/10/16 07:29:58;;;;;;;4.05;1.65;;;13.00;99.90;;;;;;4998309;28;20113;-81
2022/10/16 07:32:25;;;;;;;3.28;1.85;;;13.10;99.90;;;;;;5002699;28;20049;-81
2022/10/16 07:34:51;;;;;;;4.63;2.10;;;13.30;99.90;;;;;;4992590;28;20111;-82
2022/10/16 07:37:17;;;;;;;4.13;2.03;;;13.40;99.90;;;;;;5000464;28;20037;-81
2022/10/16 07:39:42;;;;;;;11.85;3.65;;;13.40;99.90;;;;;;4998127;28;20034;-81
2022/10/16 07:42:08;;;;;;;5.70;2.30;;;13.30;99.90;;;;;;5005995;28;20095;-81
2022/10/16 07:44:33;;;;;;;10.05;2.60;;;13.50;99.90;;;;;;4999604;28;20036;-81
2022/10/16 07:46:59;;;;;;;5.43;2.17;;;13.70;99.90;;;;;;5003949;28;20022;-81
2022/10/16 07:49:24;;;;;;;6.30;2.40;;;13.70;99.90;;;;;;4995614;28;20018;-81
2022/10/16 07:51:50;;;;;;;5.40;2.20;;;13.60;99.90;;;;;;4997165;28;20022;-81
2022/10/16 07:54:16;;;;;;;5.50;1.77;;;13.60;99.90;;;;;;4994570;28;20044;-81
2022/10/16 07:56:41;;;;;;;5.57;1.83;;;13.60;99.90;;;;;;5002171;28;20033;-81
2022/10/16 07:59:07;;;;;;;6.07;1.73;;;13.50;99.90;;;;;;4999139;28;20022;-82
2022/10/16 08:01:32;;;;;;;5.38;1.98;;;13.60;99.90;;;;;;5001819;28;20026;-82
2022/10/16 08:03:58;;;;;;;7.93;2.08;;;13.50;99.90;;;;;;5000118;28;20417;-82
2022/10/16 08:06:24;;;;;;;7.43;2.30;;;13.50;99.90;;;;;;4997328;28;20033;-81
2022/10/16 08:08:49;;;;;;;4.03;1.95;;;13.50;99.90;;;;;;4994703;28;20485;-81
2022/10/16 08:11:15;;;;;;;4.97;2.08;;;13.70;99.90;;;;;;5004849;28;20090;-81
2022/10/16 08:13:41;;;;;;;7.45;1.98;;;13.70;99.90;;;;;;4999631;28;20026;-81
2022/10/16 08:16:08;;;;;;;9.65;2.20;;;13.60;99.90;;;;;;5002710;28;20038;-81
2022/10/16 08:18:38;;;;;;;5.18;1.80;;;13.50;99.90;;;;;;5002999;28;20019;-82
2022/10/16 08:21:05;;;;;;;9.77;2.13;;;13.90;99.90;;;;;;5012532;28;20399;-82
2022/10/16 08:23:30;;;;;;;5.80;1.80;;;15.50;99.90;;;;;;5008832;28;20244;-82
2022/10/16 08:26:01;;;;;;;6.18;2.22;;;22.20;62.70;;;;;;5000286;28;20164;-82
2022/10/16 08:28:27;;;;;;;3.63;1.85;;;25.40;23.10;;;;;;5002222;28;20034;-82
2022/10/16 08:30:52;;;;;;;5.45;1.52;;;27.60;9.30;;;;;;5015890;28;20021;-83
2022/10/16 08:33:18;;;;;;;2.40;1.40;;;27.00;1.00;;;;;;4999390;28;20022;-83
2022/10/16 08:35:51;;;;;;;6.75;1.92;;;26.90;1.00;;;;;;4998919;28;20061;-83
2022/10/16 08:38:16;;;;;;;4.85;1.40;;;26.30;1.00;;;;;;5009942;28;20048;-82
2022/10/16 08:40:42;;;;;;;4.50;1.50;;;23.20;1.00;;;;;;5010348;28;20018;-82
2022/10/16 08:43:22;;;;;;;5.53;1.42;;;25.70;1.00;;;;;;5004021;28;20402;-82
2022/10/16 08:46:06;;;;;;;4.20;1.27;;;28.60;1.00;;;;;;5001744;28;20437;-82
2022/10/16 08:48:49;;;;;;;3.53;1.15;;;30.30;1.00;;;;;;5020701;28;20286;-82
2022/10/16 08:51:23;;;;;;;6.28;1.38;;;30.60;1.00;;;;;;5012824;28;20025;-83
2022/10/16 08:53:56;;;;;;;7.18;2.20;;;31.50;1.00;;;;;;5002747;28;20037;-83
2022/10/16 08:56:22;;;;;;;3.67;1.40;;;31.50;1.00;;;;;;5011925;28;20025;-83
2022/10/16 08:58:49;;;;;;;4.25;1.42;;;27.10;1.00;;;;;;5012022;28;20664;-83
2022/10/16 09:01:18;;;;;;;5.05;1.25;;;23.70;1.00;;;;;;5003384;28;20024;-83
2022/10/16 09:04:22;;;;;;;6.55;1.50;;;22.10;1.00;;;;;;5002241;28;20033;-83
2022/10/16 09:06:54;;;;;;;8.75;1.70;;;20.50;1.00;;;;;;5002336;28;20030;-83
2022/10/16 09:09:35;;;;;;;7.25;1.70;;;19.70;1.00;;;;;;5010744;28;20402;-83
2022/10/16 09:12:26;;;;;;;8.52;1.70;;;19.50;1.00;;;;;;5001854;28;20497;-83
2022/10/16 09:14:58;;;;;;;8.10;1.30;;;19.90;1.00;;;;;;5003696;28;20038;-83
2022/10/16 09:17:35;;;;;;;7.60;1.50;;;20.00;1.00;;;;;;5013361;28;20370;-83
2022/10/16 09:20:12;;;;;;;12.65;2.00;;;19.70;1.00;;;;;;5007031;28;20025;-83
2022/10/16 09:22:39;;;;;;;7.78;1.70;;;19.30;1.00;;;;;;5002376;28;20665;-83
2022/10/16 09:25:21;;;;;;;8.35;1.83;;;21.00;1.00;;;;;;4994204;28;20029;-83
2022/10/16 09:27:52;;;;;;;7.45;1.77;;;23.90;1.00;;;;;;5009528;28;20322;-83
2022/10/16 09:30:20;;;;;;;7.85;2.15;;;26.80;1.00;;;;;;4996613;28;20056;-83
2022/10/16 09:32:50;;;;;;;9.43;2.00;;;27.80;1.00;;;;;;4998058;28;20102;-83
2022/10/16 09:35:22;;;;;;;11.25;1.85;;;29.30;1.00;;;;;;5001672;28;20410;-83
2022/10/16 09:37:50;;;;;;;8.73;1.60;;;29.40;1.00;;;;;;5000997;28;20049;-83
2022/10/16 09:40:29;;;;;;;8.18;1.58;;;30.10;1.00;;;;;;5008188;28;20027;-83
2022/10/16 09:43:29;;;;;;;10.75;1.70;;;30.60;1.00;;;;;;5004595;28;20031;-83
2022/10/16 09:46:00;;;;;;;12.88;1.60;;;29.70;1.00;;;;;;5015688;28;20117;-83
2022/10/16 09:48:50;;;;;;;5.40;1.38;;;30.10;1.00;;;;;;5004922;28;20025;-83
2022/10/16 09:51:22;;;;;;;12.05;1.52;;;30.00;1.00;;;;;;4997940;28;20030;-83
2022/10/16 09:53:48;;;;;;;9.18;1.50;;;29.30;1.00;;;;;;5010567;28;20037;-83
2022/10/16 09:56:26;;;;;;;10.55;2.20;;;28.80;1.00;;;;;;5004890;28;20080;-85
2022/10/16 09:58:54;;;;;;;8.70;1.67;;;28.30;1.00;;;;;;4995654;28;20045;-85
2022/10/16 10:01:22;;;;;;;9.27;1.85;;;27.20;1.00;;;;;;5002138;28;20032;-86
2022/10/16 10:03:49;;;;;;;11.20;1.75;;;25.50;1.00;;;;;;5003923;28;20022;-86
2022/10/16 10:06:25;;;;;;;15.52;1.95;;;23.80;1.00;;;;;;5022960;28;20108;-85
2022/10/16 10:08:55;;;;;;;10.90;1.55;;;22.80;1.00;;;;;;5016793;28;20478;-85
2022/10/16 10:11:41;;;;;;;12.35;2.00;;;22.30;1.00;;;;;;5010525;28;20025;-83
2022/10/16 10:14:18;;;;;;;12.50;2.05;;;21.80;1.00;;;;;;5009364;28;20567;-83
2022/10/16 10:16:44;;;;;;;14.15;1.55;;;21.20;1.00;;;;;;5004649;28;20104;-84
2022/10/16 10:19:21;;;;;;;14.10;2.08;;;20.70;1.00;;;;;;5002135;28;20475;-84
2022/10/16 10:21:47;;;;;;;9.80;2.00;;;20.80;1.00;;;;;;5002816;28;20084;-83
2022/10/16 10:24:14;;;;;;;12.23;1.80;;;20.30;1.00;;;;;;5004345;28;20260;-84
2022/10/16 10:26:50;;;;;;;10.00;1.88;;;19.90;1.00;;;;;;5009823;28;20014;-84
2022/10/16 10:29:30;;;;;;;11.13;1.67;;;19.70;1.00;;;;;;5003252;28;20370;-84
2022/10/16 10:32:41;;;;;;;12.95;1.65;;;19.70;1.00;;;;;;5001843;28;20032;-85
2022/10/16 10:35:14;;;;;;;11.68;2.20;;;19.50;1.00;;;;;;4972368;28;20035;-85
2022/10/16 10:38:12;;;;;;;13.90;2.00;;;19.20;1.00;;;;;;4981224;28;20030;-85
2022/10/16 10:40:56;;;;;;;10.60;1.60;;;19.00;1.00;;;;;;5009962;28;20455;-85
2022/10/16 10:43:42;;;;;;;8.85;1.65;;;18.90;1.00;;;;;;5012913;28;20081;-84
2022/10/16 10:46:29;;;;;;;7.28;1.30;;;19.00;1.00;;;;;;4992904;28;20340;-85
2022/10/16 10:49:10;;;;;;;5.75;1.23;;;18.90;1.00;;;;;;5003817;28;20397;-85
2022/10/16 10:52:17;;;;;;;9.27;2.13;;;18.70;1.00;;;;;;5002282;28;20314;-85
2022/10/16 10:55:36;;;;;;;8.32;1.40;;;18.70;1.00;;;;;;5005489;28;20038;-84
2022/10/16 10:58:42;;;;;;;7.00;1.47;;;18.70;1.00;;;;;;4931091;29;20040;-83
2022/10/16 11:01:17;;;;;;;6.72;1.50;;;18.60;1.00;;;;;;5003760;28;20026;-83
2022/10/16 11:04:01;;;;;;;9.18;1.98;;;18.50;1.00;;;;;;5011097;28;20101;-83
2022/10/16 11:06:50;;;;;;;9.75;1.63;;;18.60;1.00;;;;;;5007263;28;20124;-83
2022/10/16 11:09:23;;;;;;;8.07;1.52;;;18.50;1.00;;;;;;5003632;28;20029;-83
2022/10/16 11:12:24;;;;;;;5.03;1.33;;;18.50;1.00;;;;;;5002040;28;20018;-83
2022/10/16 11:15:14;;;;;;;10.15;1.38;;;18.60;1.00;;;;;;5000251;28;20113;-83
2022/10/16 11:17:41;;;;;;;;;;;18.70;1.00;;;;;;4999457;28;20041;-84
2022/10/16 11:20:16;;;;;;;7.40;1.20;;;18.50;1.00;;;;;;5009942;28;20485;-84
2022/10/16 11:22:52;;;;;;;13.13;1.40;;;18.60;1.00;;;;;;5015631;28;20488;-84
2022/10/16 11:25:31;;;;;;;11.02;1.65;;;18.60;1.00;;;;;;5014672;28;20029;-85
2022/10/16 11:28:15;;;;;;;9.90;1.83;;;18.70;1.00;;;;;;4979563;28;20414;-84
2022/10/16 11:31:02;;;;;;;8.70;1.15;;;18.90;1.00;;;;;;5011552;28;20101;-84
2022/10/16 11:33:45;;;;;;;8.32;1.60;;;18.90;1.00;;;;;;5016276;28;20025;-83
2022/10/16 11:36:30;;;;;;;10.02;2.00;;;18.90;1.00;;;;;;4995842;28;20425;-84
2022/10/16 11:39:11;;;;;;;11.93;1.40;;;18.80;1.00;;;;;;4994355;28;20378;-84
2022/10/16 11:41:48;;;;;;;9.10;1.40;;;18.70;1.00;;;;;;4993812;28;20509;-84
2022/10/16 11:45:05;;;;;;;7.57;1.45;;;18.80;1.00;;;;;;4993554;28;20045;-83
2022/10/16 11:47:35;;;;;;;8.38;1.30;;;18.80;1.00;;;;;;4979308;28;20077;-83
2022/10/16 11:50:39;;;;;;;9.50;1.42;;;18.80;1.00;;;;;;5002206;28;20045;-83
2022/10/16 11:53:14;;;;;;;5.72;1.10;;;18.80;1.00;;;;;;5002662;28;20025;-83
2022/10/16 11:55:43;;;;;;;7.20;1.20;;;18.80;1.00;;;;;;5013655;28;20030;-83
2022/10/16 11:58:32;;;;;;;8.77;1.33;;;18.90;1.00;;;;;;5013576;28;20026;-83
2022/10/16 12:01:09;;;;;;;7.57;1.42;;;18.80;1.00;;;;;;5014227;28;20018;-83
2022/10/16 12:04:06;;;;;;;4.95;1.15;;;18.70;1.00;;;;;;4998515;28;20030;-83
2022/10/16 12:06:46;;;;;;;8.45;1.83;;;18.60;1.00;;;;;;4999712;28;20077;-83
2022/10/16 12:09:24;;;;;;;6.47;0.93;;;18.70;1.00;;;;;;5004656;28;20518;-83
2022/10/16 12:11:50;;;;;;;7.45;1.38;;;18.60;1.00;;;;;;5004260;28;20041;-83
2022/10/16 12:14:15;;;;;;;7.07;1.60;;;18.80;1.00;;;;;;5001944;28;20106;-83
2022/10/16 12:17:01;;;;;;;8.48;1.23;;;18.80;1.00;;;;;;5033103;28;20030;-83
2022/10/16 12:19:29;;;;;;;9.90;1.45;;;18.80;1.00;;;;;;5033295;28;20026;-83
2022/10/16 12:22:00;;;;;;;6.95;1.20;;;18.90;1.00;;;;;;5032887;28;20067;-82
2022/10/16 12:24:28;;;;;;;13.15;1.33;;;18.90;1.00;;;;;;5032945;28;20532;-83
2022/10/16 12:26:54;;;;;;;11.77;1.35;;;19.00;1.00;;;;;;5033017;28;20083;-83
2022/10/16 12:29:40;;;;;;;8.90;1.40;;;19.00;1.00;;;;;;5019959;28;20026;-83
2022/10/16 12:32:28;;;;;;;9.38;1.50;;;18.90;1.00;;;;;;5011504;28;20062;-83
2022/10/16 12:34:54;;;;;;;7.95;1.15;;;18.60;1.00;;;;;;5008525;28;20058;-83
2022/10/16 12:37:25;;;;;;;9.57;1.52;;;18.60;1.00;;;;;;5003673;28;20052;-83
2022/10/16 12:39:53;;;;;;;9.20;1.50;;;18.00;1.00;;;;;;5004552;28;20026;-82
2022/10/16 12:42:28;;;;;;;11.68;1.58;;;17.80;1.00;;;;;;5009407;28;20060;-82
2022/10/16 12:44:54;;;;;;;9.40;1.13;;;17.80;1.00;;;;;;5005959;28;20110;-81
2022/10/16 12:47:31;;;;;;;10.65;1.38;;;17.70;1.00;;;;;;4997569;28;20109;-81
2022/10/16 12:49:57;;;;;;;6.97;1.33;;;17.40;1.00;;;;;;4993482;28;20022;-81
2022/10/16 12:52:33;;;;;;;8.23;1.40;;;17.50;1.00;;;;;;4993367;28;20524;-81
2022/10/16 12:55:00;;;;;;;9.50;1.45;;;17.50;1.00;;;;;;4993604;28;20022;-81
2022/10/16 12:57:37;;;;;;;9.70;1.40;;;17.50;1.00;;;;;;5003917;28;20028;-81
2022/10/16 13:00:31;;;;;;;9.65;1.60;;;17.40;1.00;;;;;;5003985;28;20240;-81
2022/10/16 13:03:25;;;;;;;12.25;1.65;;;17.60;1.00;;;;;;5005850;28;20121;-81
2022/10/16 13:06:05;;;;;;;15.20;1.80;;;17.60;1.00;;;;;;5014462;28;20061;-81
2022/10/16 13:08:34;;;;;;;8.80;1.40;;;17.70;1.00;;;;;;5000766;28;20075;-81
2022/10/16 13:11:20;;;;;;;6.10;1.13;;;17.80;1.00;;;;;;5014944;28;20026;-81
2022/10/16 13:14:24;;;;;;;8.07;1.50;;;17.60;1.00;;;;;;5000573;28;20033;-81
2022/10/16 13:17:20;;;;;;;6.72;1.20;;;17.60;1.00;;;;;;5000463;28;20482;-81
2022/10/16 13:20:06;;;;;;;9.93;1.33;;;17.80;1.00;;;;;;4999897;28;20388;-81
2022/10/16 13:23:01;;;;;;;7.45;1.50;;;17.60;1.00;;;;;;5015360;28;20045;-81
2022/10/16 13:26:12;;;;;;;10.40;1.35;;;17.50;1.00;;;;;;4998967;28;20070;-81